Time;durP1;ratioP1;P1;durP2;ratioP2;P2;SDS_P1;SDS_P2;PMS_P1;PMS_P2;Temp;Humidity;BMP_temperature;BMP_pressure;BME280_temperature;BME280_humidity;BME280_pressure;Samples;Min_cycle;Max_cycle;Signal;HPM_P1;HPM_P2
2022/10/20 00:00:01;;;;;;;;;;;22.80;46.50;;;;;;475000;251;1110;-54
2022/10/20 00:02:02;;;;;;;;;;;22.70;46.40;;;;;;474606;251;1231;-54
2022/10/20 00:04:03;;;;;;;;;;;22.80;46.50;;;;;;474804;251;1241;-54
2022/10/20 00:06:04;;;;;;;;;;;22.70;46.50;;;;;;474677;251;1166;-54
2022/10/20 00:08:06;;;;;;;;;;;22.80;46.50;;;;;;475022;251;1327;-54
2022/10/20 00:10:07;;;;;;;;;;;22.70;46.50;;;;;;474821;251;1664;-54
2022/10/20 00:12:08;;;;;;;;;;;22.80;46.50;;;;;;474599;251;1228;-54
2022/10/20 00:14:10;;;;;;;;;;;22.80;46.50;;;;;;474604;251;1274;-54
2022/10/20 00:16:11;;;;;;;;;;;22.80;46.50;;;;;;474620;251;1252;-54
2022/10/20 00:18:13;;;;;;;;;;;22.80;46.50;;;;;;474569;251;1233;-54
2022/10/20 00:20:14;;;;;;;;;;;22.80;46.50;;;;;;474548;251;1472;-54
2022/10/20 00:22:15;;;;;;;;;;;22.80;46.60;;;;;;474971;251;1387;-54
2022/10/20 00:24:18;;;;;;;;;;;22.80;46.50;;;;;;474989;251;1312;-54
2022/10/20 00:26:18;;;;;;;;;;;22.80;46.60;;;;;;474439;251;2459;-54
2022/10/20 00:28:19;;;;;;;;;;;22.80;46.60;;;;;;474535;251;2213;-53
2022/10/20 00:30:20;;;;;;;;;;;22.80;46.60;;;;;;474696;251;1222;-54
2022/10/20 00:32:22;;;;;;;;;;;22.70;46.60;;;;;;474708;251;1261;-54
2022/10/20 00:34:23;;;;;;;;;;;22.80;46.70;;;;;;474861;251;1320;-54
2022/10/20 00:36:24;;;;;;;;;;;22.80;46.60;;;;;;474677;251;1390;-54
2022/10/20 00:38:26;;;;;;;;;;;22.80;46.60;;;;;;474997;251;1273;-54
2022/10/20 00:40:27;;;;;;;;;;;22.80;46.60;;;;;;474560;251;1316;-54
2022/10/20 00:42:28;;;;;;;;;;;22.80;46.60;;;;;;475033;251;1384;-54
2022/10/20 00:44:30;;;;;;;;;;;22.80;46.60;;;;;;474667;251;1325;-53
2022/10/20 00:46:31;;;;;;;;;;;22.80;46.60;;;;;;474608;251;1213;-54
2022/10/20 00:48:32;;;;;;;;;;;22.80;46.60;;;;;;474704;251;2189;-53
2022/10/20 00:50:34;;;;;;;;;;;22.80;46.60;;;;;;474978;251;1167;-54
2022/10/20 00:52:35;;;;;;;;;;;22.70;46.50;;;;;;474933;251;1246;-54
2022/10/20 00:54:36;;;;;;;;;;;22.80;46.60;;;;;;474617;251;1208;-53
2022/10/20 00:56:38;;;;;;;;;;;22.80;46.60;;;;;;474580;251;1204;-53
2022/10/20 00:58:39;;;;;;;;;;;22.80;46.60;;;;;;474699;251;1252;-54
2022/10/20 01:00:40;;;;;;;;;;;22.80;46.60;;;;;;474761;251;1196;-54
2022/10/20 01:02:42;;;;;;;;;;;22.80;46.70;;;;;;474591;251;1535;-54
2022/10/20 01:04:43;;;;;;;;;;;22.80;46.60;;;;;;474929;251;1181;-54
2022/10/20 01:06:44;;;;;;;;;;;22.70;46.60;;;;;;474700;251;1204;-54
2022/10/20 01:08:46;;;;;;;;;;;22.80;46.70;;;;;;474839;251;2216;-54
2022/10/20 01:10:47;;;;;;;;;;;22.80;46.70;;;;;;474778;251;1196;-54
2022/10/20 01:12:49;;;;;;;;;;;22.70;46.70;;;;;;474758;251;1271;-54
2022/10/20 01:14:50;;;;;;;;;;;22.70;46.70;;;;;;475026;251;1243;-54
2022/10/20 01:16:51;;;;;;;;;;;22.70;46.70;;;;;;474954;251;1221;-54
2022/10/20 01:18:53;;;;;;;;;;;22.80;46.70;;;;;;474614;251;1228;-54
2022/10/20 01:20:54;;;;;;;;;;;22.80;46.70;;;;;;474564;251;1284;-54
2022/10/20 01:22:56;;;;;;;;;;;22.70;46.70;;;;;;474727;251;1297;-54
2022/10/20 01:24:57;;;;;;;;;;;22.70;46.70;;;;;;474590;251;1294;-54
2022/10/20 01:26:58;;;;;;;;;;;22.80;46.80;;;;;;474591;251;1710;-54
2022/10/20 01:29:00;;;;;;;;;;;22.80;46.70;;;;;;474520;251;2197;-54
2022/10/20 01:31:01;;;;;;;;;;;22.80;46.80;;;;;;475011;251;1525;-55
2022/10/20 01:33:02;;;;;;;;;;;22.70;46.80;;;;;;474775;251;1211;-54
2022/10/20 01:35:04;;;;;;;;;;;22.70;46.80;;;;;;474609;251;1274;-54
2022/10/20 01:37:05;;;;;;;;;;;22.70;46.80;;;;;;475014;251;1246;-54
2022/10/20 01:39:06;;;;;;;;;;;22.70;46.80;;;;;;474575;251;1238;-54
2022/10/20 01:41:08;;;;;;;;;;;22.70;46.80;;;;;;474812;251;1342;-54
2022/10/20 01:43:09;;;;;;;;;;;22.80;46.80;;;;;;474809;251;1272;-54
2022/10/20 01:45:10;;;;;;;;;;;22.70;46.80;;;;;;474926;251;1278;-54
2022/10/20 01:47:12;;;;;;;;;;;22.70;46.80;;;;;;474608;251;1098;-54
2022/10/20 01:49:13;;;;;;;;;;;22.70;46.80;;;;;;475050;251;2173;-54
2022/10/20 01:51:14;;;;;;;;;;;22.70;46.80;;;;;;474580;251;1200;-54
2022/10/20 01:53:16;;;;;;;;;;;22.70;46.80;;;;;;475022;251;1195;-53
2022/10/20 01:55:17;;;;;;;;;;;22.70;46.80;;;;;;474618;251;1212;-53
2022/10/20 01:57:18;;;;;;;;;;;22.70;46.90;;;;;;474575;251;1336;-53
2022/10/20 01:59:19;;;;;;;;;;;22.70;46.90;;;;;;474600;251;1509;-53
2022/10/20 02:01:21;;;;;;;;;;;22.70;46.80;;;;;;474681;251;1232;-54
2022/10/20 02:03:22;;;;;;;;;;;22.70;46.80;;;;;;475004;251;1223;-53
2022/10/20 02:05:23;;;;;;;;;;;22.70;46.80;;;;;;474572;251;1225;-54
2022/10/20 02:07:25;;;;;;;;;;;22.70;46.90;;;;;;474777;251;1347;-53
2022/10/20 02:09:26;;;;;;;;;;;22.70;46.90;;;;;;474812;251;2206;-54
2022/10/20 02:11:27;;;;;;;;;;;22.70;46.90;;;;;;474575;251;1232;-54
2022/10/20 02:13:29;;;;;;;;;;;22.70;46.90;;;;;;474948;251;1242;-53
2022/10/20 02:15:30;;;;;;;;;;;22.70;46.90;;;;;;474690;251;1355;-54
2022/10/20 02:17:31;;;;;;;;;;;22.70;46.80;;;;;;474525;251;1442;-54
2022/10/20 02:19:33;;;;;;;;;;;22.70;46.80;;;;;;474567;251;1270;-54
2022/10/20 02:21:34;;;;;;;;;;;22.70;46.90;;;;;;474995;251;1265;-54
2022/10/20 02:23:35;;;;;;;;;;;22.70;46.90;;;;;;474717;251;1243;-54
2022/10/20 02:25:37;;;;;;;;;;;22.70;46.90;;;;;;474568;251;1243;-54
2022/10/20 02:27:38;;;;;;;;;;;22.70;46.90;;;;;;474591;251;1343;-54
2022/10/20 02:29:39;;;;;;;;;;;22.80;46.90;;;;;;474494;251;2205;-53
2022/10/20 02:31:41;;;;;;;;;;;22.70;46.90;;;;;;474982;251;1247;-54
2022/10/20 02:33:42;;;;;;;;;;;22.80;46.90;;;;;;474586;251;1236;-54
2022/10/20 02:35:43;;;;;;;;;;;22.80;46.80;;;;;;474923;251;1286;-54
2022/10/20 02:37:45;;;;;;;;;;;22.70;46.80;;;;;;474582;251;1292;-54
2022/10/20 02:39:46;;;;;;;;;;;22.70;46.80;;;;;;474821;251;1203;-54
2022/10/20 02:41:47;;;;;;;;;;;22.80;46.90;;;;;;474535;251;1205;-54
2022/10/20 02:43:49;;;;;;;;;;;22.80;47.00;;;;;;475030;251;1267;-54
2022/10/20 02:45:50;;;;;;;;;;;22.70;46.90;;;;;;474978;251;1501;-54
2022/10/20 02:47:51;;;;;;;;;;;22.70;46.90;;;;;;474581;251;1272;-54
2022/10/20 02:49:53;;;;;;;;;;;22.80;47.00;;;;;;475004;251;2212;-54
2022/10/20 02:51:54;;;;;;;;;;;22.70;46.90;;;;;;474557;251;1230;-54
2022/10/20 02:53:55;;;;;;;;;;;22.70;46.90;;;;;;474546;251;1328;-54
2022/10/20 02:55:57;;;;;;;;;;;22.70;46.90;;;;;;474573;251;1292;-54
2022/10/20 02:57:58;;;;;;;;;;;22.70;46.90;;;;;;474597;251;1289;-54
2022/10/20 02:59:59;;;;;;;;;;;22.70;46.90;;;;;;474940;251;1291;-54
2022/10/20 03:02:01;;;;;;;;;;;22.80;47.00;;;;;;475038;251;1190;-54
2022/10/20 03:04:02;;;;;;;;;;;22.70;46.90;;;;;;475031;251;1211;-54
2022/10/20 03:06:03;;;;;;;;;;;22.70;46.90;;;;;;474674;251;1210;-54
2022/10/20 03:08:05;;;;;;;;;;;22.70;46.90;;;;;;475007;251;1191;-54
2022/10/20 03:10:07;;;;;;;;;;;22.70;46.90;;;;;;474793;251;2158;-54
2022/10/20 03:12:08;;;;;;;;;;;22.70;46.90;;;;;;474655;251;2169;-53
2022/10/20 03:14:09;;;;;;;;;;;22.70;46.90;;;;;;474903;251;1157;-54
2022/10/20 03:16:10;;;;;;;;;;;22.70;46.90;;;;;;475055;251;1311;-54
2022/10/20 03:18:11;;;;;;;;;;;22.70;46.90;;;;;;474676;251;1194;-53
2022/10/20 03:20:13;;;;;;;;;;;22.70;46.90;;;;;;474973;251;1212;-54
2022/10/20 03:22:14;;;;;;;;;;;22.70;46.90;;;;;;474768;251;1235;-54
2022/10/20 03:24:15;;;;;;;;;;;22.70;46.90;;;;;;474724;251;1199;-54
2022/10/20 03:26:17;;;;;;;;;;;22.70;46.90;;;;;;474779;251;1302;-54
2022/10/20 03:28:18;;;;;;;;;;;22.70;46.90;;;;;;474567;251;1292;-54
2022/10/20 03:30:20;;;;;;;;;;;22.70;46.90;;;;;;474799;251;2192;-54
2022/10/20 03:32:21;;;;;;;;;;;22.70;46.90;;;;;;474567;251;1522;-54
2022/10/20 03:34:22;;;;;;;;;;;22.70;47.00;;;;;;474654;251;1215;-54
2022/10/20 03:36:24;;;;;;;;;;;22.70;46.90;;;;;;474722;251;1779;-54
2022/10/20 03:38:25;;;;;;;;;;;22.70;46.90;;;;;;474555;251;1397;-54
2022/10/20 03:40:26;;;;;;;;;;;22.70;46.90;;;;;;474570;251;1246;-54
2022/10/20 03:42:28;;;;;;;;;;;22.70;47.00;;;;;;474805;251;1201;-54
2022/10/20 03:44:29;;;;;;;;;;;22.70;46.90;;;;;;474968;251;1315;-54
2022/10/20 03:46:30;;;;;;;;;;;22.70;46.90;;;;;;474843;251;1251;-54
2022/10/20 03:48:32;;;;;;;;;;;22.70;46.90;;;;;;474578;251;1375;-54
2022/10/20 03:50:33;;;;;;;;;;;22.70;46.90;;;;;;474838;251;2164;-53
2022/10/20 03:52:35;;;;;;;;;;;22.70;46.90;;;;;;474671;251;1216;-53
2022/10/20 03:54:36;;;;;;;;;;;22.70;47.00;;;;;;474909;251;2101;-54
2022/10/20 03:56:37;;;;;;;;;;;22.70;46.90;;;;;;474585;251;1562;-54
2022/10/20 03:58:38;;;;;;;;;;;22.70;47.00;;;;;;474521;251;1377;-54
2022/10/20 04:00:40;;;;;;;;;;;22.70;47.00;;;;;;474860;251;1271;-54
2022/10/20 04:02:41;;;;;;;;;;;22.70;46.90;;;;;;474517;251;1273;-54
2022/10/20 04:04:42;;;;;;;;;;;22.80;47.00;;;;;;474644;251;1371;-54
2022/10/20 04:06:43;;;;;;;;;;;22.70;46.90;;;;;;474507;251;1371;-54
2022/10/20 04:08:45;;;;;;;;;;;22.70;46.90;;;;;;474735;251;1312;-54
2022/10/20 04:10:46;;;;;;;;;;;22.70;46.90;;;;;;474875;251;2208;-54
2022/10/20 04:12:47;;;;;;;;;;;22.70;46.90;;;;;;474653;251;1217;-54
2022/10/20 04:14:49;;;;;;;;;;;22.70;46.90;;;;;;474576;251;1273;-54
2022/10/20 04:16:50;;;;;;;;;;;22.70;46.90;;;;;;474543;251;1531;-54
2022/10/20 04:18:51;;;;;;;;;;;22.70;46.90;;;;;;474603;251;1279;-54
2022/10/20 04:20:53;;;;;;;;;;;22.70;47.00;;;;;;474490;251;1262;-53
2022/10/20 04:22:54;;;;;;;;;;;22.80;47.00;;;;;;474837;251;1204;-54
2022/10/20 04:24:55;;;;;;;;;;;22.80;47.00;;;;;;474821;251;1255;-54
2022/10/20 04:26:57;;;;;;;;;;;22.80;47.00;;;;;;474583;251;1175;-54
2022/10/20 04:28:58;;;;;;;;;;;22.70;46.90;;;;;;474565;251;1299;-54
2022/10/20 04:30:59;;;;;;;;;;;22.70;46.90;;;;;;474667;251;2149;-54
2022/10/20 04:33:01;;;;;;;;;;;22.80;47.00;;;;;;474510;251;1274;-54
2022/10/20 04:35:02;;;;;;;;;;;22.80;47.00;;;;;;474643;251;1347;-54
2022/10/20 04:37:03;;;;;;;;;;;22.80;47.00;;;;;;474576;251;1196;-54
2022/10/20 04:39:05;;;;;;;;;;;22.70;46.90;;;;;;474968;251;1222;-53
2022/10/20 04:41:06;;;;;;;;;;;22.70;46.90;;;;;;474825;251;1251;-54
2022/10/20 04:43:07;;;;;;;;;;;22.70;46.90;;;;;;474501;251;1338;-54
2022/10/20 04:45:09;;;;;;;;;;;22.80;47.00;;;;;;474471;251;1255;-54
2022/10/20 04:47:10;;;;;;;;;;;22.70;46.90;;;;;;474442;251;1188;-54
2022/10/20 04:49:11;;;;;;;;;;;22.70;46.90;;;;;;474539;251;1295;-54
2022/10/20 04:51:13;;;;;;;;;;;22.70;47.00;;;;;;474651;251;2207;-54
2022/10/20 04:53:14;;;;;;;;;;;22.70;47.00;;;;;;474767;251;1243;-54
2022/10/20 04:55:15;;;;;;;;;;;22.70;46.90;;;;;;474467;251;1277;-54
2022/10/20 04:57:17;;;;;;;;;;;22.80;47.00;;;;;;474527;251;1220;-54
2022/10/20 04:59:18;;;;;;;;;;;22.80;47.00;;;;;;474518;251;1371;-54
2022/10/20 05:01:19;;;;;;;;;;;22.80;47.00;;;;;;474527;251;1268;-54
2022/10/20 05:03:21;;;;;;;;;;;22.80;47.00;;;;;;474530;251;1326;-54
2022/10/20 05:05:22;;;;;;;;;;;22.80;47.00;;;;;;474544;251;1320;-54
2022/10/20 05:07:23;;;;;;;;;;;22.80;47.00;;;;;;474523;251;1290;-54
2022/10/20 05:09:25;;;;;;;;;;;22.80;47.00;;;;;;474538;251;1275;-53
2022/10/20 05:11:26;;;;;;;;;;;22.80;47.00;;;;;;474697;251;2207;-54
2022/10/20 05:13:27;;;;;;;;;;;22.80;47.00;;;;;;474637;251;1212;-54
2022/10/20 05:15:28;;;;;;;;;;;22.80;46.90;;;;;;474766;251;1249;-54
2022/10/20 05:17:30;;;;;;;;;;;22.80;46.70;;;;;;474476;251;1270;-54
2022/10/20 05:19:31;;;;;;;;;;;22.80;46.60;;;;;;474779;251;1254;-54
2022/10/20 05:21:32;;;;;;;;;;;22.80;46.50;;;;;;474959;251;1254;-54
2022/10/20 05:23:34;;;;;;;;;;;22.80;46.40;;;;;;474522;251;1243;-54
2022/10/20 05:25:35;;;;;;;;;;;22.90;46.30;;;;;;474512;251;1276;-54
2022/10/20 05:27:36;;;;;;;;;;;22.90;46.10;;;;;;474631;251;1234;-54
2022/10/20 05:29:38;;;;;;;;;;;22.90;46.10;;;;;;474463;251;1241;-54
2022/10/20 05:31:39;;;;;;;;;;;22.90;46.10;;;;;;474684;251;2201;-54
2022/10/20 05:33:40;;;;;;;;;;;22.90;46.00;;;;;;474509;251;1281;-54
2022/10/20 05:35:42;;;;;;;;;;;22.90;45.90;;;;;;474492;251;1227;-54
2022/10/20 05:37:43;;;;;;;;;;;22.90;45.80;;;;;;474380;251;1292;-54
2022/10/20 05:39:44;;;;;;;;;;;22.90;45.70;;;;;;474660;251;1401;-54
2022/10/20 05:41:46;;;;;;;;;;;22.90;45.70;;;;;;474620;251;1665;-54
2022/10/20 05:43:47;;;;;;;;;;;22.90;45.70;;;;;;474675;251;1208;-54
2022/10/20 05:45:48;;;;;;;;;;;22.90;45.60;;;;;;474635;251;1313;-54
2022/10/20 05:47:50;;;;;;;;;;;22.90;45.50;;;;;;474501;251;1684;-53
2022/10/20 05:49:51;;;;;;;;;;;22.90;45.50;;;;;;474535;251;1227;-54
2022/10/20 05:51:52;;;;;;;;;;;22.90;45.50;;;;;;474679;251;2165;-54
2022/10/20 05:53:54;;;;;;;;;;;22.90;45.50;;;;;;474832;251;1233;-54
2022/10/20 05:55:55;;;;;;;;;;;22.90;45.40;;;;;;474829;251;1234;-54
2022/10/20 05:57:56;;;;;;;;;;;22.90;45.30;;;;;;474992;251;1171;-54
2022/10/20 05:59:58;;;;;;;;;;;22.90;45.20;;;;;;474487;251;1413;-54
2022/10/20 06:01:59;;;;;;;;;;;22.90;45.20;;;;;;474514;250;1303;-54
2022/10/20 06:04:00;;;;;;;;;;;22.90;45.10;;;;;;474542;251;1247;-54
2022/10/20 06:06:02;;;;;;;;;;;22.90;45.10;;;;;;474462;251;1092;-54
2022/10/20 06:08:03;;;;;;;;;;;22.90;45.00;;;;;;474635;251;1185;-54
2022/10/20 06:10:04;;;;;;;;;;;22.90;45.00;;;;;;474585;251;1339;-54
2022/10/20 06:12:06;;;;;;;;;;;22.90;45.00;;;;;;474484;251;2133;-54
2022/10/20 06:14:07;;;;;;;;;;;22.90;44.80;;;;;;474419;251;1303;-54
2022/10/20 06:16:08;;;;;;;;;;;22.90;44.80;;;;;;474465;251;1247;-54
2022/10/20 06:18:10;;;;;;;;;;;22.90;44.70;;;;;;474642;251;1742;-54
2022/10/20 06:20:11;;;;;;;;;;;22.90;44.60;;;;;;474469;251;1184;-54
2022/10/20 06:22:12;;;;;;;;;;;22.90;44.60;;;;;;474737;251;1248;-54
2022/10/20 06:24:15;;;;;;;;;;;22.90;44.50;;;;;;474403;251;1353;-53
2022/10/20 06:26:16;;;;;;;;;;;23.00;44.60;;;;;;474399;251;1642;-54
2022/10/20 06:28:17;;;;;;;;;;;23.00;44.50;;;;;;474605;251;1216;-54
2022/10/20 06:30:19;;;;;;;;;;;22.90;44.40;;;;;;474513;251;1266;-54
2022/10/20 06:32:19;;;;;;;;;;;22.90;44.30;;;;;;474339;251;2229;-54
2022/10/20 06:34:21;;;;;;;;;;;22.90;44.30;;;;;;474701;251;1190;-54
2022/10/20 06:36:22;;;;;;;;;;;22.90;44.20;;;;;;474397;251;1360;-53
2022/10/20 06:38:23;;;;;;;;;;;23.00;44.20;;;;;;474730;251;1071;-54
2022/10/20 06:40:25;;;;;;;;;;;23.00;44.20;;;;;;474563;251;1158;-54
2022/10/20 06:42:27;;;;;;;;;;;23.00;44.10;;;;;;474458;251;1238;-54
2022/10/20 06:44:27;;;;;;;;;;;23.00;44.00;;;;;;474167;251;2494;-54
2022/10/20 06:46:29;;;;;;;;;;;23.00;44.10;;;;;;474352;251;1288;-54
2022/10/20 06:48:30;;;;;;;;;;;23.00;44.10;;;;;;474453;251;1243;-54
2022/10/20 06:50:31;;;;;;;;;;;23.00;44.10;;;;;;474364;251;2201;-54
2022/10/20 06:52:33;;;;;;;;;;;23.00;43.90;;;;;;474284;251;1327;-53
2022/10/20 06:54:34;;;;;;;;;;;23.00;43.90;;;;;;474476;251;1301;-54
2022/10/20 06:56:35;;;;;;;;;;;23.00;44.00;;;;;;474161;251;1255;-54
2022/10/20 06:58:37;;;;;;;;;;;23.00;44.20;;;;;;474407;251;1267;-54
2022/10/20 07:00:38;;;;;;;;;;;22.90;44.40;;;;;;474418;251;1255;-54
2022/10/20 07:02:39;;;;;;;;;;;22.90;44.50;;;;;;474408;251;1089;-54
2022/10/20 07:04:41;;;;;;;;;;;22.90;44.50;;;;;;474419;251;1218;-54
2022/10/20 07:06:42;;;;;;;;;;;22.90;44.70;;;;;;474420;251;1300;-54
2022/10/20 07:08:43;;;;;;;;;;;22.90;44.80;;;;;;474566;251;2357;-54
2022/10/20 07:10:45;;;;;;;;;;;22.90;44.80;;;;;;474281;251;2166;-54
2022/10/20 07:12:46;;;;;;;;;;;22.90;44.90;;;;;;474418;251;1263;-54
2022/10/20 07:14:47;;;;;;;;;;;22.90;45.00;;;;;;474337;251;1245;-54
2022/10/20 07:16:49;;;;;;;;;;;22.90;45.10;;;;;;474321;251;1197;-54
2022/10/20 07:18:50;;;;;;;;;;;22.90;45.10;;;;;;474176;251;1085;-53
2022/10/20 07:20:51;;;;;;;;;;;22.90;45.10;;;;;;474238;251;1217;-53
2022/10/20 07:22:53;;;;;;;;;;;22.90;45.10;;;;;;474270;251;1344;-54
2022/10/20 07:24:54;;;;;;;;;;;22.90;45.20;;;;;;474383;251;1584;-54
2022/10/20 07:26:55;;;;;;;;;;;22.80;45.20;;;;;;474417;251;1243;-53
2022/10/20 07:28:56;;;;;;;;;;;22.90;45.30;;;;;;474284;251;1273;-54
2022/10/20 07:30:58;;;;;;;;;;;22.90;45.20;;;;;;474212;251;2933;-53
2022/10/20 07:32:59;;;;;;;;;;;22.90;45.20;;;;;;474283;251;1420;-54
2022/10/20 07:35:00;;;;;;;;;;;22.90;45.30;;;;;;474353;251;1457;-54
2022/10/20 07:37:02;;;;;;;;;;;22.90;45.30;;;;;;474293;251;1261;-53
2022/10/20 07:39:03;;;;;;;;;;;22.90;45.30;;;;;;474202;251;1235;-54
2022/10/20 07:41:05;;;;;;;;;;;22.90;45.30;;;;;;474235;251;1346;-53
2022/10/20 07:43:06;;;;;;;;;;;22.90;45.30;;;;;;474424;251;1227;-54
2022/10/20 07:45:07;;;;;;;;;;;22.90;45.30;;;;;;474297;251;1206;-54
2022/10/20 07:47:09;;;;;;;;;;;22.90;45.30;;;;;;474294;251;1307;-53
2022/10/20 07:49:10;;;;;;;;;;;22.90;45.30;;;;;;474283;251;1280;-54
2022/10/20 07:51:12;;;;;;;;;;;22.90;45.30;;;;;;474260;251;2162;-54
2022/10/20 07:53:13;;;;;;;;;;;22.90;45.40;;;;;;474289;251;1309;-54
2022/10/20 07:55:14;;;;;;;;;;;22.90;45.40;;;;;;474273;251;1282;-54
2022/10/20 07:57:15;;;;;;;;;;;22.90;45.40;;;;;;474271;251;1247;-54
2022/10/20 07:59:17;;;;;;;;;;;22.90;45.40;;;;;;474248;251;1237;-54
2022/10/20 08:01:18;;;;;;;;;;;22.90;45.40;;;;;;474361;251;1305;-54
2022/10/20 08:03:19;;;;;;;;;;;22.90;45.50;;;;;;474480;251;1242;-54
2022/10/20 08:05:21;;;;;;;;;;;22.90;45.40;;;;;;474358;251;1311;-54
2022/10/20 08:07:22;;;;;;;;;;;22.90;45.40;;;;;;474340;251;1229;-54
2022/10/20 08:09:23;;;;;;;;;;;22.90;45.50;;;;;;474337;251;1231;-54
2022/10/20 08:11:25;;;;;;;;;;;22.90;45.50;;;;;;474315;251;2168;-54
2022/10/20 08:13:26;;;;;;;;;;;22.90;45.50;;;;;;474316;251;1231;-54
2022/10/20 08:15:27;;;;;;;;;;;22.90;45.60;;;;;;474508;251;1252;-54
2022/10/20 08:17:29;;;;;;;;;;;22.90;45.60;;;;;;474376;251;1360;-53
2022/10/20 08:19:30;;;;;;;;;;;22.90;45.50;;;;;;474587;251;1199;-54
2022/10/20 08:21:31;;;;;;;;;;;22.90;45.60;;;;;;474176;251;1160;-54
2022/10/20 08:23:33;;;;;;;;;;;22.90;45.60;;;;;;474243;251;1319;-54
2022/10/20 08:25:34;;;;;;;;;;;22.90;45.60;;;;;;474270;251;1192;-54
2022/10/20 08:27:35;;;;;;;;;;;22.90;45.60;;;;;;474283;251;1240;-54
2022/10/20 08:29:37;;;;;;;;;;;22.90;45.70;;;;;;474373;251;1262;-53
2022/10/20 08:31:38;;;;;;;;;;;22.90;45.70;;;;;;474336;251;2161;-53
2022/10/20 08:33:39;;;;;;;;;;;22.90;45.70;;;;;;474423;251;1242;-54
2022/10/20 08:35:41;;;;;;;;;;;22.80;45.70;;;;;;474348;251;1346;-54
2022/10/20 08:37:42;;;;;;;;;;;22.80;45.70;;;;;;474271;251;1533;-54
2022/10/20 08:39:43;;;;;;;;;;;22.90;45.70;;;;;;474199;251;1218;-53
2022/10/20 08:41:45;;;;;;;;;;;22.80;45.80;;;;;;474496;251;1196;-54
2022/10/20 08:43:46;;;;;;;;;;;22.90;45.80;;;;;;474315;251;1205;-54
2022/10/20 08:45:47;;;;;;;;;;;22.90;45.80;;;;;;474415;251;1201;-54
2022/10/20 08:47:49;;;;;;;;;;;22.80;45.80;;;;;;474252;251;1280;-54
2022/10/20 08:49:50;;;;;;;;;;;22.80;45.80;;;;;;474251;251;1325;-53
2022/10/20 08:51:51;;;;;;;;;;;22.90;45.80;;;;;;474377;251;2224;-53
2022/10/20 08:53:52;;;;;;;;;;;22.90;45.80;;;;;;474074;251;1243;-53
2022/10/20 08:55:54;;;;;;;;;;;22.90;45.80;;;;;;474269;251;1215;-53
2022/10/20 08:57:55;;;;;;;;;;;22.90;45.80;;;;;;474393;251;1198;-54
2022/10/20 08:59:56;;;;;;;;;;;22.90;45.80;;;;;;474282;251;1213;-54
2022/10/20 09:01:58;;;;;;;;;;;22.90;45.90;;;;;;474171;251;1210;-54
2022/10/20 09:03:59;;;;;;;;;;;22.90;45.90;;;;;;474310;251;1118;-53
2022/10/20 09:06:00;;;;;;;;;;;22.80;45.80;;;;;;474388;251;1401;-54
2022/10/20 09:08:02;;;;;;;;;;;22.80;45.80;;;;;;474180;251;1164;-54
2022/10/20 09:10:03;;;;;;;;;;;22.90;45.90;;;;;;474338;251;1205;-53
2022/10/20 09:12:04;;;;;;;;;;;22.80;45.80;;;;;;474306;251;2208;-53
2022/10/20 09:14:06;;;;;;;;;;;22.80;45.80;;;;;;474434;251;1207;-53
2022/10/20 09:16:07;;;;;;;;;;;22.90;45.90;;;;;;474455;251;1290;-53
2022/10/20 09:18:08;;;;;;;;;;;22.90;45.90;;;;;;474382;251;1238;-53
2022/10/20 09:20:10;;;;;;;;;;;22.80;45.90;;;;;;474233;251;1206;-53
2022/10/20 09:27:00;;;;;;;;;;;22.90;45.90;;;;;;448237;265;1415;-54
2022/10/20 09:29:01;;;;;;;;;;;22.80;45.80;;;;;;449131;265;1421;-53
2022/10/20 09:31:02;;;;;;;;;;;22.90;45.90;;;;;;449427;265;1349;-53
2022/10/20 09:33:04;;;;;;;;;;;22.90;45.90;;;;;;449241;265;2238;-53
2022/10/20 09:35:05;;;;;;;;;;;22.90;45.90;;;;;;449134;265;1721;-53
2022/10/20 09:37:06;;;;;;;;;;;22.80;45.90;;;;;;449222;265;1693;-53
2022/10/20 09:39:08;;;;;;;;;;;22.90;45.90;;;;;;449272;265;1419;-54
2022/10/20 09:41:09;;;;;;;;;;;22.90;45.90;;;;;;449716;265;1305;-54
2022/10/20 09:43:11;;;;;;;;;;;22.80;46.00;;;;;;449453;265;1689;-53
2022/10/20 09:45:12;;;;;;;;;;;22.90;46.00;;;;;;449511;265;1299;-53
2022/10/20 09:47:13;;;;;;;;;;;22.90;45.90;;;;;;449430;265;1286;-53
2022/10/20 09:49:14;;;;;;;;;;;22.90;45.90;;;;;;449347;265;1392;-53
2022/10/20 09:51:16;;;;;;;;;;;22.90;46.00;;;;;;449394;265;1379;-53
2022/10/20 09:53:17;;;;;;;;;;;22.90;46.00;;;;;;449345;265;2225;-53
2022/10/20 09:55:18;;;;;;;;;;;22.80;46.00;;;;;;449380;265;1308;-53
2022/10/20 09:57:20;;;;;;;;;;;22.80;46.00;;;;;;449276;265;1322;-53
2022/10/20 09:59:21;;;;;;;;;;;22.90;46.00;;;;;;449330;265;1628;-54
2022/10/20 10:01:23;;;;;;;;;;;22.90;46.00;;;;;;449536;251;1316;-53
2022/10/20 10:03:24;;;;;;;;;;;22.80;46.00;;;;;;474399;251;1319;-53
2022/10/20 10:05:25;;;;;;;;;;;22.90;46.00;;;;;;474421;251;1208;-53
2022/10/20 10:07:27;;;;;;;;;;;22.80;46.00;;;;;;474439;251;1259;-53
2022/10/20 10:09:29;;;;;;;;;;;22.90;46.00;;;;;;474439;251;1198;-53
2022/10/20 10:11:29;;;;;;;;;;;22.90;46.00;;;;;;474244;251;1443;-53
2022/10/20 10:13:30;;;;;;;;;;;22.90;46.00;;;;;;474284;251;2195;-53
2022/10/20 10:15:32;;;;;;;;;;;22.90;46.00;;;;;;474228;251;1301;-54
2022/10/20 10:17:33;;;;;;;;;;;22.90;46.00;;;;;;474357;251;1418;-53
2022/10/20 10:19:34;;;;;;;;;;;22.90;46.00;;;;;;474562;251;1291;-54
2022/10/20 10:21:36;;;;;;;;;;;22.90;46.00;;;;;;474355;251;1330;-54
2022/10/20 10:23:39;;;;;;;;;;;22.90;46.00;;;;;;474311;251;1311;-54
2022/10/20 10:25:38;;;;;;;;;;;22.80;46.00;;;;;;474333;251;2093;-53
2022/10/20 10:27:40;;;;;;;;;;;22.90;46.10;;;;;;474575;251;1276;-53
2022/10/20 10:29:41;;;;;;;;;;;22.90;46.10;;;;;;474402;251;1330;-53
2022/10/20 10:31:43;;;;;;;;;;;22.90;46.10;;;;;;474686;251;1309;-53
2022/10/20 10:33:44;;;;;;;;;;;22.80;46.10;;;;;;474216;251;2117;-54
2022/10/20 10:35:46;;;;;;;;;;;22.80;46.10;;;;;;474653;251;1215;-53
2022/10/20 10:37:46;;;;;;;;;;;22.90;46.10;;;;;;474508;251;2581;-53
2022/10/20 10:39:48;;;;;;;;;;;22.90;46.10;;;;;;474234;251;1546;-53
2022/10/20 10:41:49;;;;;;;;;;;22.90;46.10;;;;;;473896;251;1278;-53
2022/10/20 10:43:50;;;;;;;;;;;22.80;46.10;;;;;;473991;251;1259;-54
2022/10/20 10:45:52;;;;;;;;;;;22.80;46.10;;;;;;474002;251;1350;-53
2022/10/20 10:47:53;;;;;;;;;;;22.80;46.10;;;;;;474045;251;1300;-53
2022/10/20 10:49:54;;;;;;;;;;;22.80;46.10;;;;;;474230;251;1266;-53
2022/10/20 10:51:56;;;;;;;;;;;22.80;46.10;;;;;;474339;251;2150;-53
2022/10/20 10:53:57;;;;;;;;;;;22.90;46.20;;;;;;474341;251;1241;-53
2022/10/20 10:55:58;;;;;;;;;;;22.90;46.10;;;;;;474183;251;1192;-53
2022/10/20 10:58:00;;;;;;;;;;;22.90;46.20;;;;;;474533;251;1314;-53
2022/10/20 11:00:01;;;;;;;;;;;22.90;46.10;;;;;;474273;251;1306;-53
2022/10/20 11:02:03;;;;;;;;;;;22.90;46.20;;;;;;474394;251;1205;-53
2022/10/20 11:04:04;;;;;;;;;;;22.90;46.20;;;;;;474393;251;1274;-53
2022/10/20 11:06:05;;;;;;;;;;;22.90;46.20;;;;;;474119;251;1219;-53
2022/10/20 11:08:07;;;;;;;;;;;22.90;46.10;;;;;;474244;251;1280;-53
2022/10/20 11:10:09;;;;;;;;;;;22.90;46.10;;;;;;474494;251;1203;-53
2022/10/20 11:12:09;;;;;;;;;;;22.90;46.10;;;;;;474130;251;2205;-53
2022/10/20 11:14:11;;;;;;;;;;;22.90;46.10;;;;;;474279;251;1277;-53
2022/10/20 11:16:12;;;;;;;;;;;22.90;46.10;;;;;;474288;251;1629;-53
2022/10/20 11:18:13;;;;;;;;;;;22.90;46.20;;;;;;474247;251;1270;-53
2022/10/20 11:20:15;;;;;;;;;;;22.90;46.10;;;;;;474427;251;1208;-54
2022/10/20 11:22:16;;;;;;;;;;;22.90;46.20;;;;;;474323;251;1206;-53
2022/10/20 11:24:18;;;;;;;;;;;22.90;46.20;;;;;;474359;251;1226;-53
2022/10/20 11:26:19;;;;;;;;;;;22.90;46.20;;;;;;474370;251;1186;-53
2022/10/20 11:28:20;;;;;;;;;;;22.90;46.20;;;;;;474260;251;2178;-53
2022/10/20 11:30:22;;;;;;;;;;;22.90;46.20;;;;;;474411;251;1318;-53
2022/10/20 11:32:24;;;;;;;;;;;22.90;46.20;;;;;;474393;251;2204;-54
2022/10/20 11:34:25;;;;;;;;;;;22.90;46.20;;;;;;474255;251;1608;-53
2022/10/20 11:36:26;;;;;;;;;;;22.90;46.20;;;;;;474298;251;1257;-54
2022/10/20 11:38:30;;;;;;;;;;;22.90;46.20;;;;;;474331;251;1544;-53
2022/10/20 11:40:29;;;;;;;;;;;22.90;46.20;;;;;;474142;251;1682;-53
2022/10/20 11:42:31;;;;;;;;;;;22.90;46.20;;;;;;474278;251;1285;-53
2022/10/20 11:44:32;;;;;;;;;;;22.90;46.20;;;;;;474293;251;1226;-53
2022/10/20 11:46:33;;;;;;;;;;;22.90;46.10;;;;;;474501;251;1284;-53
2022/10/20 11:48:35;;;;;;;;;;;22.90;46.20;;;;;;474421;251;1396;-52
2022/10/20 11:50:36;;;;;;;;;;;22.90;46.10;;;;;;474463;251;1382;-54
2022/10/20 11:52:37;;;;;;;;;;;22.90;46.20;;;;;;474254;251;2165;-53
2022/10/20 11:54:39;;;;;;;;;;;22.90;46.20;;;;;;474323;251;1235;-53
2022/10/20 11:56:40;;;;;;;;;;;22.90;46.20;;;;;;474254;251;1683;-54
2022/10/20 11:58:41;;;;;;;;;;;22.90;46.20;;;;;;474424;251;1203;-53
2022/10/20 12:00:42;;;;;;;;;;;22.90;46.20;;;;;;474470;251;1318;-53